createdAt,value
2023-03-13T00:01:34.737Z,31.60
2023-03-13T00:04:01.657Z,25.65
2023-03-13T00:06:32.490Z,22.98
2023-03-13T00:09:02.746Z,30.35
2023-03-13T00:13:58.763Z,29.10
2023-03-13T00:16:27.800Z,24.75
2023-03-13T00:18:58.129Z,23.02
2023-03-13T00:21:27.752Z,30.10
2023-03-13T00:23:55.422Z,27.55
2023-03-13T00:26:25.233Z,22.85
2023-03-13T00:28:53.127Z,21.80
2023-03-13T00:31:26.337Z,23.40
2023-03-13T00:33:57.068Z,24.38
2023-03-13T00:36:27.083Z,20.30
2023-03-13T00:38:55.430Z,18.30
2023-03-13T00:41:26.075Z,25.52
2023-03-13T00:43:53.497Z,26.63
2023-03-13T00:46:23.260Z,25.73
2023-03-13T00:48:50.848Z,27.83
2023-03-13T00:51:19.465Z,29.52
2023-03-13T00:53:51.249Z,24.20
2023-03-13T00:56:20.393Z,26.35
2023-03-13T00:58:49.217Z,28.77
2023-03-13T01:01:36.224Z,21.45
2023-03-13T01:04:12.534Z,21.70
2023-03-13T01:06:42.890Z,29.33
2023-03-13T01:09:16.394Z,16.23
2023-03-13T01:11:44.896Z,27.98
2023-03-13T01:14:16.528Z,16.48
2023-03-13T01:16:43.651Z,18.33
2023-03-13T01:19:13.918Z,23.92
2023-03-13T01:24:08.817Z,22.83
2023-03-13T01:26:35.946Z,22.27
2023-03-13T01:29:02.845Z,20.48
2023-03-13T01:31:33.048Z,21.15
2023-03-13T01:34:03.087Z,29.63
2023-03-13T01:36:30.173Z,32.83
2023-03-13T01:38:59.552Z,25.98
2023-03-13T01:41:29.114Z,15.33
2023-03-13T01:43:56.713Z,23.35
2023-03-13T01:46:28.878Z,13.65
2023-03-13T01:49:21.288Z,20.80
2023-03-13T01:52:04.203Z,20.23
2023-03-13T01:54:46.844Z,22.13
2023-03-13T01:57:24.721Z,22.55
2023-03-13T02:00:08.943Z,20.05
2023-03-13T02:02:46.298Z,19.20
2023-03-13T02:05:15.284Z,26.67
2023-03-13T02:07:50.607Z,19.08
2023-03-13T02:10:18.269Z,19.20
2023-03-13T02:12:45.680Z,22.13
2023-03-13T02:15:14.593Z,16.38
2023-03-13T02:17:42.551Z,21.63
2023-03-13T02:20:10.564Z,20.77
2023-03-13T02:22:54.033Z,18.63
2023-03-13T02:25:24.103Z,16.70
2023-03-13T02:28:06.912Z,20.10
2023-03-13T02:30:36.172Z,28.08
2023-03-13T02:33:04.612Z,31.35
2023-03-13T02:35:33.129Z,22.95
2023-03-13T02:38:07.360Z,22.58
2023-03-13T02:40:41.611Z,18.35
2023-03-13T02:43:24.914Z,24.98
2023-03-13T02:46:05.640Z,28.33
2023-03-13T02:48:43.622Z,20.35
2023-03-13T02:51:25.870Z,26.13
2023-03-13T02:53:57.153Z,27.27
2023-03-13T02:56:27.430Z,18.52
2023-03-13T02:58:55.529Z,17.25
2023-03-13T03:01:25.417Z,27.92
2023-03-13T03:03:52.479Z,23.40
2023-03-13T03:06:19.627Z,33.72
2023-03-13T03:08:47.567Z,24.65
2023-03-13T03:11:14.624Z,23.25
2023-03-13T03:13:44.012Z,23.63
2023-03-13T03:16:15.428Z,25.15
2023-03-13T03:18:42.376Z,27.38
2023-03-13T03:21:09.499Z,25.65
2023-03-13T03:23:39.403Z,23.67
2023-03-13T03:26:07.577Z,34.65
2023-03-13T03:28:34.978Z,24.10
2023-03-13T03:31:08.410Z,22.13
2023-03-13T03:33:37.770Z,28.23
2023-03-13T03:36:10.404Z,22.38
2023-03-13T03:38:39.772Z,23.83
2023-03-13T03:41:09.890Z,24.65
2023-03-13T03:43:36.988Z,20.67
2023-03-13T03:46:07.568Z,21.08
2023-03-13T03:48:35.285Z,25.90
2023-03-13T03:51:05.791Z,11.32
2023-03-13T03:53:35.556Z,22.00
2023-03-13T03:56:02.776Z,26.48
2023-03-13T03:58:30.198Z,31.85
2023-03-13T04:01:11.123Z,30.63
2023-03-13T04:03:38.550Z,26.38
2023-03-13T04:06:07.097Z,24.23
2023-03-13T04:08:34.106Z,16.25
2023-03-13T04:11:02.748Z,26.17
2023-03-13T04:13:34.083Z,36.03
2023-03-13T04:16:06.099Z,15.70
2023-03-13T04:18:33.117Z,19.65
2023-03-13T04:21:06.184Z,18.50
2023-03-13T04:23:53.410Z,17.70
2023-03-13T04:26:21.326Z,29.35
2023-03-13T04:28:51.239Z,20.98
2023-03-13T04:31:24.377Z,34.88
2023-03-13T04:34:17.540Z,19.02
2023-03-13T04:37:03.107Z,24.70
2023-03-13T04:40:07.123Z,32.15
2023-03-13T04:42:54.726Z,36.67
2023-03-13T04:45:24.545Z,22.55
2023-03-13T04:47:59.499Z,26.40
2023-03-13T04:50:49.800Z,31.52
2023-03-13T04:53:45.742Z,22.63
2023-03-13T04:56:42.792Z,26.70
2023-03-13T04:59:33.977Z,24.17
2023-03-13T05:02:19.317Z,34.03
2023-03-13T05:04:58.040Z,21.42
2023-03-13T05:07:43.572Z,20.10
2023-03-13T05:10:29.349Z,28.10
2023-03-13T05:13:22.320Z,14.75
2023-03-13T05:16:08.107Z,22.67
2023-03-13T05:18:53.876Z,21.30
2023-03-13T05:21:56.030Z,16.92
2023-03-13T05:24:58.133Z,15.25
2023-03-13T05:27:43.511Z,15.75
2023-03-13T05:30:30.932Z,18.17
2023-03-13T05:33:06.967Z,13.18
2023-03-13T05:36:00.064Z,19.58
2023-03-13T05:38:42.170Z,16.27
2023-03-13T05:41:19.607Z,13.80
2023-03-13T05:44:17.388Z,11.35
2023-03-13T05:47:07.280Z,9.52
2023-03-13T05:49:46.466Z,11.20
2023-03-13T05:52:32.978Z,7.70
2023-03-13T05:55:06.178Z,8.65
2023-03-13T06:00:43.743Z,7.78
2023-03-13T06:03:29.419Z,6.10
2023-03-13T06:05:59.277Z,11.95
2023-03-13T06:08:56.238Z,7.85
2023-03-13T06:11:27.048Z,8.25
2023-03-13T06:13:54.732Z,7.05
2023-03-13T06:16:34.593Z,7.27
2023-03-13T06:19:14.248Z,7.95
2023-03-13T06:21:41.191Z,13.73
2023-03-13T06:24:08.603Z,5.05
2023-03-13T06:26:35.597Z,4.53
2023-03-13T06:29:02.588Z,14.77
2023-03-13T06:31:29.584Z,3.28
2023-03-13T06:33:57.059Z,3.75
2023-03-13T06:36:25.125Z,6.78
2023-03-13T06:38:52.252Z,9.32
2023-03-13T06:41:19.824Z,10.10
2023-03-13T06:43:46.773Z,11.98
2023-03-13T06:46:22.344Z,6.55
2023-03-13T06:48:50.103Z,5.47
2023-03-13T06:51:19.502Z,4.88
2023-03-13T06:53:47.473Z,7.18
2023-03-13T06:56:14.500Z,8.05
2023-03-13T06:58:41.468Z,12.48
2023-03-13T07:01:08.421Z,8.15
2023-03-13T07:03:36.212Z,4.80
2023-03-13T07:06:03.898Z,11.57
2023-03-13T07:08:30.908Z,8.70
2023-03-13T07:11:09.054Z,2.78
2023-03-13T07:13:36.588Z,4.68
2023-03-13T07:16:09.193Z,3.67
2023-03-13T07:18:36.825Z,3.75
2023-03-13T07:21:07.435Z,7.78
2023-03-13T07:23:35.765Z,4.28
2023-03-13T07:26:12.624Z,4.30
2023-03-13T07:28:39.648Z,3.92
2023-03-13T07:31:13.538Z,2.45
2023-03-13T07:33:40.709Z,5.03
2023-03-13T07:36:08.981Z,2.88
2023-03-13T07:38:35.959Z,5.78
2023-03-13T07:41:03.541Z,4.30
2023-03-13T07:43:31.633Z,3.50
2023-03-13T07:45:59.726Z,5.28
2023-03-13T07:48:33.951Z,4.43
2023-03-13T07:51:01.403Z,6.97
2023-03-13T07:53:29.287Z,3.50
2023-03-13T07:56:01.892Z,7.22
2023-03-13T07:58:31.416Z,3.67
2023-03-13T08:00:59.628Z,3.97
2023-03-13T08:03:27.162Z,5.90
2023-03-13T08:06:02.162Z,4.75
2023-03-13T08:08:30.338Z,6.13
2023-03-13T08:11:05.500Z,3.35
2023-03-13T08:13:33.439Z,4.60
2023-03-13T08:16:09.953Z,4.22
2023-03-13T08:18:38.762Z,7.80
2023-03-13T08:21:08.562Z,3.67
2023-03-13T08:23:36.266Z,1.83
2023-03-13T08:26:14.516Z,3.00
2023-03-13T08:28:42.313Z,2.10
2023-03-13T08:31:27.563Z,3.63
2023-03-13T08:33:54.508Z,4.10
2023-03-13T08:36:26.956Z,2.15
2023-03-13T08:38:56.053Z,2.05
2023-03-13T08:41:25.675Z,3.53
2023-03-13T08:43:54.198Z,5.25
2023-03-13T08:46:21.567Z,4.72
2023-03-13T08:48:52.874Z,2.35
2023-03-13T08:51:22.244Z,5.88
2023-03-13T08:53:49.925Z,4.10
2023-03-13T08:56:19.796Z,2.83
2023-03-13T08:58:51.353Z,2.88
2023-03-13T09:01:18.409Z,1.73
2023-03-13T09:03:45.643Z,3.38
2023-03-13T09:06:13.258Z,1.98
2023-03-13T09:08:41.416Z,4.47
2023-03-13T09:11:10.932Z,2.65
2023-03-13T09:13:40.426Z,2.28
2023-03-13T09:16:09.964Z,4.15
2023-03-13T09:18:37.386Z,2.47
2023-03-13T09:21:07.512Z,2.50
2023-03-13T09:23:34.493Z,2.75
2023-03-13T09:26:01.774Z,1.88
2023-03-13T09:28:29.439Z,5.95
2023-03-13T09:30:56.540Z,3.03
2023-03-13T09:33:26.375Z,2.97
2023-03-13T09:35:53.363Z,1.52
2023-03-13T09:38:21.732Z,2.38
2023-03-13T09:41:05.360Z,3.67
2023-03-13T09:43:47.858Z,4.00
2023-03-13T09:46:26.893Z,2.00
2023-03-13T09:48:59.964Z,1.90
2023-03-13T09:51:32.855Z,4.63
2023-03-13T09:54:13.269Z,1.48
2023-03-13T09:59:46.254Z,2.00
2023-03-13T10:02:37.014Z,1.75
2023-03-13T10:05:12.295Z,2.75
2023-03-13T10:07:39.353Z,2.90
2023-03-13T10:10:19.920Z,3.05
2023-03-13T10:12:49.374Z,2.38
2023-03-13T10:15:54.159Z,3.23
2023-03-13T10:18:22.962Z,2.60
2023-03-13T10:20:53.476Z,4.60
2023-03-13T10:23:23.703Z,2.95
2023-03-13T10:25:50.663Z,2.03
2023-03-13T10:28:20.288Z,1.58
2023-03-13T10:30:52.550Z,2.80
2023-03-13T10:33:23.281Z,1.65
2023-03-13T10:36:08.435Z,2.22
2023-03-13T10:38:54.707Z,5.32
2023-03-13T10:41:27.480Z,2.90
2023-03-13T10:44:04.810Z,2.40
2023-03-13T10:46:35.004Z,3.05
2023-03-13T10:49:05.227Z,1.65
2023-03-13T10:51:38.496Z,3.17
2023-03-13T10:54:22.579Z,1.83
2023-03-13T10:57:07.245Z,1.60
2023-03-13T10:59:44.290Z,2.00
2023-03-13T11:02:31.838Z,8.52
2023-03-13T11:04:59.926Z,3.22
2023-03-13T11:07:32.187Z,2.78
2023-03-13T11:10:17.911Z,4.60
2023-03-13T11:12:47.562Z,2.08
2023-03-13T11:15:22.965Z,2.65
2023-03-13T11:17:59.817Z,1.73
2023-03-13T11:20:30.093Z,1.95
2023-03-13T11:23:11.218Z,6.65
2023-03-13T11:25:38.119Z,3.45
2023-03-13T11:28:07.794Z,2.20
2023-03-13T11:31:13.385Z,2.03
2023-03-13T11:33:53.393Z,3.17
2023-03-13T11:36:29.155Z,2.58
2023-03-13T11:39:07.945Z,5.47
2023-03-13T11:41:59.183Z,3.45
2023-03-13T11:44:30.834Z,3.33
2023-03-13T11:47:02.275Z,5.30
2023-03-13T11:49:41.605Z,12.68
2023-03-13T11:52:20.807Z,4.93
2023-03-13T11:55:03.150Z,5.38
2023-03-13T11:57:35.271Z,1.92
2023-03-13T12:00:14.575Z,2.38
2023-03-13T12:02:59.299Z,2.30
2023-03-13T12:05:30.034Z,2.95
2023-03-13T12:08:07.358Z,5.90
2023-03-13T12:10:41.340Z,2.05
2023-03-13T12:13:19.482Z,6.03
2023-03-13T12:16:00.340Z,3.47
2023-03-13T12:18:38.642Z,5.35
2023-03-13T12:21:38.751Z,7.80
2023-03-13T12:24:44.765Z,6.00
2023-03-13T12:27:15.209Z,6.57
2023-03-13T12:30:07.321Z,3.97
2023-03-13T12:32:43.195Z,5.75
2023-03-13T12:35:16.137Z,1.70
2023-03-13T12:38:00.441Z,2.83
2023-03-13T12:40:39.100Z,2.53
2023-03-13T12:43:17.949Z,1.60
2023-03-13T12:45:55.001Z,4.95
2023-03-13T12:48:50.779Z,3.13
2023-03-13T12:51:29.771Z,5.70
2023-03-13T12:54:24.590Z,2.92
2023-03-13T12:57:13.149Z,5.40
2023-03-13T12:59:51.402Z,3.58
2023-03-13T13:02:22.579Z,1.60
2023-03-13T13:04:51.651Z,1.83
2023-03-13T13:07:35.578Z,2.22
2023-03-13T13:10:18.427Z,1.65
2023-03-13T13:13:14.391Z,3.60
2023-03-13T13:16:00.485Z,5.10
2023-03-13T13:18:30.173Z,2.13
2023-03-13T13:21:03.239Z,4.07
2023-03-13T13:23:34.051Z,1.23
2023-03-13T13:26:36.881Z,2.20
2023-03-13T13:29:29.913Z,7.82
2023-03-13T13:32:00.296Z,1.98
2023-03-13T13:34:36.208Z,1.10
2023-03-13T13:37:24.131Z,2.30
2023-03-13T13:39:52.903Z,1.00
2023-03-13T13:42:42.096Z,1.85
2023-03-13T13:45:15.252Z,2.08
2023-03-13T13:47:48.887Z,3.47
2023-03-13T13:50:21.798Z,2.10
2023-03-13T13:52:50.189Z,5.10
2023-03-13T13:55:26.435Z,2.17
2023-03-13T13:58:05.486Z,1.95
2023-03-13T14:00:43.396Z,0.95
2023-03-13T14:03:23.800Z,6.40
2023-03-13T14:08:31.108Z,4.03
2023-03-13T14:11:16.958Z,1.10
2023-03-13T14:14:09.810Z,1.70
2023-03-13T14:16:38.289Z,2.55
2023-03-13T14:19:05.354Z,2.25
2023-03-13T14:21:34.681Z,3.90
2023-03-13T14:24:01.581Z,1.65
2023-03-13T14:26:30.402Z,1.38
2023-03-13T14:28:59.842Z,2.88
2023-03-13T14:31:37.119Z,2.83
2023-03-13T14:34:12.503Z,1.33
2023-03-13T14:37:10.942Z,1.02
2023-03-13T14:39:45.683Z,4.28
2023-03-13T14:42:14.851Z,4.22
2023-03-13T14:44:45.812Z,1.13
2023-03-13T14:47:31.397Z,2.85
2023-03-13T14:50:05.589Z,2.45
2023-03-13T14:52:34.012Z,2.33
2023-03-13T14:55:04.999Z,1.38
2023-03-13T14:57:33.144Z,2.53
2023-03-13T15:00:30.837Z,2.10
2023-03-13T15:03:16.919Z,1.45
2023-03-13T15:05:45.498Z,3.20
2023-03-13T15:08:23.710Z,5.13
2023-03-13T15:10:51.088Z,1.27
2023-03-13T15:13:44.390Z,0.75
2023-03-13T15:16:20.419Z,1.33
2023-03-13T15:18:48.548Z,1.00
2023-03-13T15:21:17.383Z,2.72
2023-03-13T15:23:56.288Z,2.45
2023-03-13T15:26:24.856Z,1.85
2023-03-13T15:28:52.050Z,4.53
2023-03-13T15:31:20.502Z,1.15
2023-03-13T15:33:53.067Z,1.60
2023-03-13T15:36:20.086Z,3.33
2023-03-13T15:38:48.059Z,0.95
2023-03-13T15:41:14.976Z,3.33
2023-03-13T15:43:41.881Z,2.03
2023-03-13T15:46:15.870Z,1.25
2023-03-13T15:48:42.898Z,4.53
2023-03-13T15:51:12.843Z,2.30
2023-03-13T15:53:42.157Z,1.98
2023-03-13T15:56:16.142Z,2.08
2023-03-13T15:58:45.492Z,1.48
2023-03-13T16:01:14.304Z,1.45
2023-03-13T16:03:41.889Z,2.55
2023-03-13T16:06:18.621Z,4.15
2023-03-13T16:08:45.856Z,3.42
2023-03-13T16:11:17.158Z,1.80
2023-03-13T16:13:44.226Z,4.70
2023-03-13T16:16:36.918Z,2.03
2023-03-13T16:19:04.419Z,1.88
2023-03-13T16:21:34.739Z,1.70
2023-03-13T16:26:31.161Z,3.85
2023-03-13T16:28:58.686Z,6.07
2023-03-13T16:31:31.580Z,2.45
2023-03-13T16:33:59.904Z,2.30
2023-03-13T16:36:30.224Z,1.55
2023-03-13T16:41:27.707Z,2.78
2023-03-13T16:43:55.813Z,2.40
2023-03-13T16:46:30.091Z,1.63
2023-03-13T16:48:58.486Z,2.67
2023-03-13T16:51:27.422Z,1.65
2023-03-13T16:53:56.600Z,4.47
2023-03-13T16:56:29.521Z,2.75
2023-03-13T16:58:57.271Z,2.90
2023-03-13T17:01:30.033Z,6.22
2023-03-13T17:03:58.606Z,5.20
2023-03-13T17:06:30.098Z,2.78
2023-03-13T17:08:58.215Z,1.80
2023-03-13T17:11:25.535Z,4.30
2023-03-13T17:13:53.539Z,2.50
2023-03-13T17:16:26.047Z,5.55
2023-03-13T17:18:54.271Z,2.17
2023-03-13T17:21:28.932Z,57.08
2023-03-13T17:23:56.402Z,10.32
2023-03-13T17:26:29.134Z,14.73
2023-03-13T17:28:58.020Z,4.18
2023-03-13T17:31:27.602Z,4.32
2023-03-13T17:33:54.887Z,4.95
2023-03-13T17:36:24.443Z,6.53
2023-03-13T17:38:54.317Z,2.92
2023-03-13T17:41:23.895Z,8.20
2023-03-13T17:43:51.277Z,4.70
2023-03-13T17:46:34.895Z,3.50
2023-03-13T17:49:02.329Z,10.98
2023-03-13T17:51:32.586Z,4.82
2023-03-13T17:54:00.000Z,6.03
2023-03-13T17:56:30.399Z,5.97
2023-03-13T18:01:31.715Z,2.90
2023-03-13T18:03:59.630Z,4.57
2023-03-13T18:06:26.607Z,2.75
2023-03-13T18:08:56.799Z,5.03
2023-03-13T18:11:26.013Z,3.78
2023-03-13T18:13:53.694Z,3.30
2023-03-13T18:16:37.389Z,2.08
2023-03-13T18:19:15.193Z,1.85
2023-03-13T18:21:44.527Z,1.63
2023-03-13T18:24:12.362Z,2.13
2023-03-13T18:26:41.210Z,1.67
2023-03-13T18:29:17.881Z,2.75
2023-03-13T18:31:45.420Z,2.13
2023-03-13T18:34:12.478Z,1.30
2023-03-13T18:36:39.502Z,1.30
2023-03-13T18:39:06.684Z,2.50
2023-03-13T18:41:34.364Z,2.17
2023-03-13T18:44:01.811Z,1.63
2023-03-13T18:46:31.811Z,2.25
2023-03-13T18:49:00.580Z,6.28
2023-03-13T18:51:28.529Z,1.27
2023-03-13T18:53:58.555Z,4.00
2023-03-13T18:56:28.470Z,3.83
2023-03-13T18:58:56.503Z,4.85
2023-03-13T19:01:26.023Z,1.58
2023-03-13T19:03:53.485Z,1.73
2023-03-13T19:06:26.593Z,2.25
2023-03-13T19:08:56.551Z,1.48
2023-03-13T19:11:27.515Z,1.77
2023-03-13T19:13:55.738Z,3.40
2023-03-13T19:16:38.668Z,3.83
2023-03-13T19:19:15.382Z,2.17
2023-03-13T19:21:42.305Z,1.27
2023-03-13T19:24:09.754Z,2.58
2023-03-13T19:26:49.720Z,2.05
2023-03-13T19:29:22.737Z,1.65
2023-03-13T19:31:50.572Z,4.03
2023-03-13T19:34:17.769Z,2.53
2023-03-13T19:36:47.381Z,2.15
2023-03-13T19:39:25.289Z,1.33
2023-03-13T19:41:53.753Z,2.97
2023-03-13T19:44:21.412Z,1.70
2023-03-13T19:46:48.878Z,1.58
2023-03-13T19:49:18.506Z,2.75
2023-03-13T19:51:46.053Z,1.90
2023-03-13T19:54:13.588Z,2.90
2023-03-13T19:56:43.841Z,2.55
2023-03-13T19:59:21.704Z,2.70
2023-03-13T20:01:48.975Z,2.58
2023-03-13T20:04:16.510Z,1.92
2023-03-13T20:06:44.272Z,1.33
2023-03-13T20:09:17.440Z,4.70
2023-03-13T20:11:44.862Z,1.85
2023-03-13T20:14:12.300Z,6.20
2023-03-13T20:16:39.833Z,2.55
2023-03-13T20:19:07.128Z,1.70
2023-03-13T20:21:36.310Z,2.28
2023-03-13T20:24:03.717Z,2.60
2023-03-13T20:26:30.877Z,2.72
2023-03-13T20:28:58.288Z,1.52
2023-03-13T20:31:31.183Z,1.42
2023-03-13T20:33:59.023Z,1.92
2023-03-13T20:36:26.950Z,4.00
2023-03-13T20:38:54.143Z,2.08
2023-03-13T20:41:24.890Z,2.45
2023-03-13T20:43:52.777Z,1.83
2023-03-13T20:46:20.672Z,1.02
2023-03-13T20:48:48.125Z,1.27
2023-03-13T20:51:15.206Z,2.67
2023-03-13T20:53:42.814Z,4.32
2023-03-13T20:56:11.617Z,7.35
2023-03-13T20:58:39.547Z,1.90
2023-03-13T21:01:07.567Z,1.33
2023-03-13T21:03:36.032Z,2.47
2023-03-13T21:06:17.719Z,1.67
2023-03-13T21:08:46.162Z,2.53
2023-03-13T21:11:13.231Z,2.33
2023-03-13T21:13:40.481Z,3.25
2023-03-13T21:16:08.161Z,1.42
2023-03-13T21:18:35.167Z,2.50
2023-03-13T21:21:04.375Z,1.65
2023-03-13T21:23:31.884Z,2.13
2023-03-13T21:26:00.532Z,1.58
2023-03-13T21:28:28.684Z,2.30
2023-03-13T21:30:56.102Z,2.47
2023-03-13T21:33:23.750Z,2.42
2023-03-13T21:35:51.122Z,1.73
2023-03-13T21:38:18.127Z,3.75
2023-03-13T21:40:45.368Z,2.75
2023-03-13T21:43:12.463Z,1.27
2023-03-13T21:45:39.344Z,4.82
2023-03-13T21:48:06.420Z,3.78
2023-03-13T21:50:33.462Z,3.80
2023-03-13T21:53:00.402Z,2.80
2023-03-13T21:55:27.343Z,3.15
2023-03-13T21:57:54.265Z,5.88
2023-03-13T22:00:21.545Z,4.30
2023-03-13T22:02:48.430Z,7.05
2023-03-13T22:05:15.320Z,2.78
2023-03-13T22:07:42.293Z,3.72
2023-03-13T22:10:10.037Z,3.05
2023-03-13T22:12:37.468Z,2.33
2023-03-13T22:15:05.078Z,1.50
2023-03-13T22:17:32.039Z,8.43
2023-03-13T22:19:58.971Z,2.17
2023-03-13T22:22:25.959Z,2.92
2023-03-13T22:24:54.322Z,3.05
2023-03-13T22:27:23.356Z,3.83
2023-03-13T22:29:50.576Z,3.45
2023-03-13T22:32:17.665Z,1.98
2023-03-13T22:34:47.312Z,1.80
2023-03-13T22:37:14.725Z,1.70
2023-03-13T22:39:41.721Z,2.50
2023-03-13T22:42:08.728Z,4.60
2023-03-13T22:44:35.658Z,5.22
2023-03-13T22:47:02.570Z,2.58
2023-03-13T22:49:29.573Z,3.00
2023-03-13T22:51:58.965Z,4.28
2023-03-13T22:54:26.074Z,2.17
2023-03-13T22:56:52.899Z,5.85
2023-03-13T22:59:19.961Z,3.97
2023-03-13T23:01:46.917Z,2.38
2023-03-13T23:04:13.932Z,3.00
2023-03-13T23:06:40.975Z,3.10
2023-03-13T23:09:08.200Z,3.13
2023-03-13T23:11:35.218Z,3.38
2023-03-13T23:14:02.231Z,10.30
2023-03-13T23:16:29.506Z,1.35
2023-03-13T23:18:56.494Z,1.20
2023-03-13T23:21:23.473Z,4.53
2023-03-13T23:23:54.172Z,4.10
2023-03-13T23:26:21.207Z,7.78
2023-03-13T23:28:48.265Z,2.08
2023-03-13T23:31:20.163Z,2.03
2023-03-13T23:33:47.772Z,2.83
2023-03-13T23:36:17.700Z,2.72
2023-03-13T23:38:49.299Z,4.03
2023-03-13T23:41:16.238Z,5.50
2023-03-13T23:43:43.227Z,3.47
2023-03-13T23:46:26.316Z,1.10
2023-03-13T23:48:57.554Z,3.63
2023-03-13T23:51:25.801Z,1.05
2023-03-13T23:53:52.838Z,1.75
2023-03-13T23:56:20.878Z,2.58
2023-03-13T23:58:48.022Z,1.30
